Tiempo atmosférico en la estación meteorológica de Fuentes de Andalucía, Sevilla (165 m.)



Fecha
DESCASC
Temp. máxima en grados centígrados (hora)
DESCASC
Temp. mínima en grados centígrados (hora)
DESCASC
Temp. media en grados centígrados
DESCASC
Racha de viento máxima en m/sg (hora)
DESCASC
Velocidad máxima media en intervalos de 10 minutos(hora)
DESCASC
Precipitaciones diarias en mm
DESCASC
Precipitaciones de 00:00 a 06:00 en mm
DESCASC
Precipitaciones de 06:00 a 12:00 en mm
DESCASC
Precipitaciones de 12:00 a 18:00 en mm
DESCASC
Precipitaciones de 18:00 a 24:00 en mm
DESCASC
24-12-2020 16.2 (16:40) 9.6 (00:00) 12.9 5.56 (07:20) 1.94 (07:20) 0 0 0 0 0
21-01-2021 16.1 (14:50) 9.8 (00:00) 13 15.83 (16:20) 11.67 (16:20) 0.2 0 0.2 0 0
20-01-2021 14.4 (13:50) 9.2 (00:00) 11.8 19.72 (11:40) 13.89 (13:20) 4.2 0 4 0.2 0
19-01-2021 14.1 (15:40) 2.2 (00:00) 8.2 5.56 (15:50) 3.61 (16:40) 0 0 0 0 0
18-01-2021 15.2 (16:40) 1.8 (00:00) 8.5 4.44 (09:30) 3.33 (06:50) 0 0 0 0 0
17-01-2021 17.3 (16:20) 2.2 (00:00) 9.7 5.28 (11:40) 3.06 (11:30) 0 0 0 0 0
16-01-2021 15.6 (16:40) 2 (00:00) 8.8 6.94 (14:00) 3.06 (08:50) 0 0 0 0 0
15-01-2021 14.6 (16:40) 0.8 (00:00) 7.7 3.61 (12:10) 2.5 (03:30) 0 0 0 0 0
14-01-2021 12.7 (17:20) 0.6 (09:10) 6.6 3.89 (10:00) 3.06 (01:10) 0 0 0 0 0
13-01-2021 13.5 (16:50) -0.1 (00:00) 6.7 5.28 (11:40) 3.33 (22:10) 0 0 0 0 0
12-01-2021 10.9 (16:00) 0.1 (00:00) 5.5 6.11 (11:50) 2.5 (11:20) 0 0 0 0 0
11-01-2021 11.2 (16:40) 1.2 (00:00) 6.2 4.72 (04:20) 2.22 (04:00) 0 0 0 0 0
10-01-2021 9.5 (15:50) 3.1 (05:20) 6.3 6.11 (02:10) 3.33 (03:10) 0.8 0 0.8 0 0
06-01-2021 12 (15:20) 3 (00:00) 7.5 6.67 (18:50) 4.44 (19:00) 5 0 0 0 5
05-01-2021 11.1 (14:00) 3.4 (00:00) 7.3 5.83 (11:50) 3.06 (10:20) 0 0 0 0 0
04-01-2021 11 (16:30) 0.6 (00:00) 5.8 6.39 (15:40) 4.17 (15:20) 0 0 0 0 0
03-01-2021 10.6 (16:00) 0 (00:00) 5.3 6.39 (21:20) 5 (20:30) 0 0 0 0 0
02-01-2021 10.6 (16:40) 0.5 (00:00) 5.6 7.22 (16:20) 4.72 (16:20) 0 0 0 0 0
31-12-2020 12 (16:20) 0.4 (00:00) 6.2 7.22 (20:10) 5.56 (20:20) 0 0 0 0 0
30-12-2020 11.6 (16:40) 2 (00:00) 6.8 4.72 (00:30) 3.61 (00:20) 0 0 0 0 0
29-12-2020 12.9 (16:40) 2.7 (00:00) 7.8 9.44 (14:40) 7.22 (16:50) 0 0 0 0 0
28-12-2020 14.6 (14:50) 4.4 (00:00) 9.5 14.17 (11:10) 10 (11:30) 0 0 0 0 0
27-12-2020 12.6 (15:40) 0.8 (00:00) 6.7 8.61 (22:40) 6.39 (22:40) 0 0 0 0 0
26-12-2020 11.2 (16:00) 2.5 (00:00) 6.8 13.89 (13:20) 8.61 (13:10) 0 0 0 0 0
25-12-2020 14.8 (15:40) 6.2 (00:00) 10.5 10.83 (14:00) 6.39 (15:10) 0 0 0 0 0
23-12-2020 15.4 (16:20) 7.4 (08:10) 11.4 3.61 (12:40) 2.22 (09:40) 0 0 0 0 0
01-01-2021 11.4 (16:00) 4.1 (00:00) 7.7 8.61 (00:20) 6.39 (00:20) 0.2 0.2 0 0 0
09-01-2021 8.8 (15:40) 3.2 (00:00) 6 10.28 (15:00) 7.22 (13:30) 1.2 0.8 0.4 0 0
07-01-2021 7.3 (15:40) 5.6 (00:00) 6.5 8.89 (23:50) 4.44 (15:00) 19.4 4.8 4.4 3.2 7
08-01-2021 8.8 (21:00) 5.5 (00:00) 7.2 10.83 (13:00) 6.39 (14:30) 45.8 5.6 15.6 6 18.6

Gráficas

Temp. máximas Temp. mínimas Temp. medias Precipitaciones Rachas de viento máximas Velocidades máximas media en intervalos de 10 minutos

Datos horarios

Fecha y hora oficial Temperatura (ºC) Velocidad del viento (km/h) Dirección del viento Racha (km/h) Dirección de racha Precipitación (mm) Presión (hPa) Tendencia (hPa) Humedad (%)
2021-01-21 23:00:00 13.2 30 Sudoeste 39 Sudoeste 0 -- -- 96
2021-01-21 22:00:00 13 26 Sudoeste 34 Sudoeste 0 -- -- 95
2021-01-21 21:00:00 13 23 Sudoeste 38 Sudoeste 0 -- -- 94
2021-01-21 20:00:00 13.2 26 Sudoeste 42 Sudoeste 0 -- -- 94
2021-01-21 19:00:00 13.5 27 Sudoeste 38 Sudoeste 0 -- -- 93
2021-01-21 18:00:00 14 29 Sudoeste 43 Sudoeste 0 -- -- 92
2021-01-21 17:00:00 14.5 29 Sudoeste 57 Sudoeste 0 -- -- 90
2021-01-21 16:00:00 15.4 31 Sudoeste 47 Sudoeste 0 -- -- 83
2021-01-21 15:00:00 15.7 37 Sudoeste 49 Sudoeste 0 -- -- 79
2021-01-21 14:00:00 15.1 27 Sudoeste 38 Sudoeste 0 -- -- 85
2021-01-21 13:00:00 14 27 Sudoeste 38 Sudoeste 0 -- -- 93
2021-01-21 12:00:00 12.8 19 Sudoeste 29 Sudoeste 0 -- -- 98
2021-01-21 11:00:00 11.5 20 Sudoeste 27 Sudoeste 0.2 -- -- 98
2021-01-21 10:00:00 10.9 16 Sudoeste 26 Sudoeste 0 -- -- 97
2021-01-21 09:00:00 10.3 13 Sur 17 Sur 0 -- -- 97
2021-01-21 08:00:00 10.3 11 Sudoeste 21 Sudoeste 0 -- -- 97
2021-01-21 07:00:00 9.9 18 Sudoeste 22 Sudoeste 0 -- -- 97
2021-01-21 06:00:00 10.4 15 Sudoeste 24 Sudoeste 0 -- -- 96
2021-01-21 05:00:00 10.7 15 Sudoeste 25 Sudoeste 0 -- -- 97
2021-01-21 04:00:00 10.7 21 Sudoeste 28 Sudoeste 0 -- -- 97
2021-01-21 03:00:00 10.2 21 Sudoeste 30 Sudoeste 0 -- -- 97
2021-01-21 02:00:00 10.1 19 Sudoeste 26 Sudoeste 0 -- -- 97
2021-01-21 01:00:00 10 19 Sudoeste 24 Sudoeste 0 -- -- 96
2021-01-21 00:00:00 10.1 18 Sudoeste 23 Sudoeste 0 -- -- 96
2021-01-20 23:00:00 9.5 12 Sudoeste 23 Sudoeste 0 -- -- 95
2021-01-20 22:00:00 10.4 15 Sudoeste 26 Sudoeste 0 -- -- 94
2021-01-20 21:00:00 11.3 20 Sudoeste 43 Sudoeste 0 -- -- 92
2021-01-20 20:00:00 12.3 29 Sudoeste 41 Sudoeste 0 -- -- 94
2021-01-20 19:00:00 12.7 30 Sudoeste 44 Sudoeste 0 -- -- 92
2021-01-20 18:00:00 12.9 32 Sudoeste 42 Sudoeste 0 -- -- 91
2021-01-20 17:00:00 13.3 29 Sudoeste 46 Sudoeste 0 -- -- 91
2021-01-20 16:00:00 12.7 32 Sudoeste 50 Sudoeste 0 -- -- 93
2021-01-20 15:00:00 13.2 36 Sudoeste 62 Sudoeste 0 -- -- 87
2021-01-20 14:00:00 14.1 46 Sudoeste 68 Sudoeste 0 -- -- 83
2021-01-20 13:00:00 12.7 36 Sudoeste 57 Sudoeste 0.2 -- -- 89
2021-01-20 12:00:00 11.7 40 Sur 71 Sudoeste 1.6 -- -- 93
2021-01-20 11:00:00 11.8 40 Sur 57 Sudoeste 0.4 -- -- 92
2021-01-20 10:00:00 11 27 Sur 39 Sudoeste 1.4 -- -- 92
2021-01-20 09:00:00 11.2 26 Sudoeste 39 Sur 0.6 -- -- 89
2021-01-20 08:00:00 11.5 25 Sur 33 Sudoeste 0 -- -- 85
2021-01-20 07:00:00 10.5 18 Sudoeste 26 Sudoeste 0 -- -- 87
2021-01-20 06:00:00 9.7 5 Sudeste 15 Sudeste 0 -- -- 83
2021-01-20 05:00:00 10.1 6 Sudeste 15 Sur 0 -- -- 82
2021-01-20 04:00:00 9.6 5 Sur 12 Sur 0 -- -- 84
2021-01-20 03:00:00 9.4 7 Sudeste 12 Sudeste 0 -- -- 83
2021-01-20 02:00:00 9.5 4 Sudeste 9 Sudeste 0 -- -- 84
2021-01-20 01:00:00 9.4 4 Sur 8 Sur 0 -- -- 84
2021-01-20 00:00:00 9.7 4 Sur 14 Sudeste 0 -- -- 82
2021-01-19 23:00:00 9.7 9 Sudeste 14 Sudeste 0 -- -- 82
2021-01-19 22:00:00 9.7 8 Sudeste 12 Sudeste 0 -- -- 80
2021-01-19 21:00:00 9.5 6 Sudeste 10 Este 0 -- -- 80
2021-01-19 20:00:00 10.1 4 Este 6 Noroeste 0 -- -- 79
2021-01-19 19:00:00 10.7 7 Noroeste 8 Noroeste 0 -- -- 78
2021-01-19 18:00:00 12.4 5 Noroeste 12 Oeste 0 -- -- 73
2021-01-19 17:00:00 13.8 9 Oeste 20 Sudoeste 0 -- -- 69
2021-01-19 16:00:00 14.1 12 Sudoeste 20 Sudoeste 0 -- -- 66
2021-01-19 15:00:00 13.4 5 Noroeste 8 Noroeste 0 -- -- 66
2021-01-19 14:00:00 12.7 3 Norte 6 Nordeste 0 -- -- 67
2021-01-19 13:00:00 11.7 4 Nordeste 11 Nordeste 0 -- -- 70
2021-01-19 12:00:00 9.4 5 Nordeste 12 Este 0 -- -- 73
2021-01-19 11:00:00 7.2 8 Este 15 Nordeste 0 -- -- 84
2021-01-19 10:00:00 3.7 6 Nordeste 12 Nordeste 0 -- -- 93
2021-01-19 09:00:00 2.2 5 Nordeste 10 Norte 0 -- -- 92
2021-01-19 08:00:00 2.8 5 Nordeste 9 Nordeste 0 -- -- 91
2021-01-19 07:00:00 3.6 4 Nordeste 9 Nordeste 0 -- -- 90
2021-01-19 06:00:00 4.7 5 Nordeste 8 Nordeste 0 -- -- 88
2021-01-19 05:00:00 6.8 3 Este 9 Este 0 -- -- 87
2021-01-19 04:00:00 8 6 Este 9 Este 0 -- -- 88
2021-01-19 03:00:00 8.3 5 Este 8 Sudeste 0 -- -- 85
2021-01-19 02:00:00 8.3 5 Sudeste 8 Sudeste 0 -- -- 84
2021-01-19 01:00:00 9 2 Sur 5 Sudeste 0 -- -- 82
2021-01-19 00:00:00 9.2 4 Sudeste 5 Sudeste 0 -- -- 80
2021-01-18 23:00:00 9.8 3 Sudeste 8 Sudoeste 0 -- -- 74
2021-01-18 22:00:00 10.5 6 Sudoeste 7 Sudoeste 0 -- -- 74
2021-01-18 21:00:00 10.3 4 Oeste 6 Oeste 0 -- -- 72
2021-01-18 20:00:00 10.5 4 Oeste 8 Oeste 0 -- -- 71
2021-01-18 19:00:00 10.8 6 Oeste 12 Sudoeste 0 -- -- 70
2021-01-18 18:00:00 12.5 9 Oeste 14 Sudoeste 0 -- -- 67
2021-01-18 17:00:00 14.9 12 Sudoeste 16 Sudoeste 0 -- -- 57
2021-01-18 16:00:00 14.8 6 Oeste 12 Oeste 0 -- -- 56
2021-01-18 15:00:00 14.9 0 Calma 5 Este 0 -- -- 53
2021-01-18 14:00:00 13.5 2 Nordeste 8 Este 0 -- -- 51
2021-01-18 13:00:00 12.3 4 Este 12 Este 0 -- -- 53
2021-01-18 12:00:00 10.1 4 Este 12 Este 0 -- -- 61
2021-01-18 11:00:00 7 6 Nordeste 15 Este 0 -- -- 70
2021-01-18 10:00:00 4 7 Nordeste 16 Este 0 -- -- 78
2021-01-18 09:00:00 1.8 8 Este 13 Este 0 -- -- 84
2021-01-18 08:00:00 2.5 7 Este 13 Este 0 -- -- 81
2021-01-18 07:00:00 2.8 8 Nordeste 15 Este 0 -- -- 81
2021-01-18 06:00:00 3.3 6 Nordeste 12 Nordeste 0 -- -- 80
2021-01-18 05:00:00 3.7 6 Nordeste 11 Nordeste 0 -- -- 78
2021-01-18 04:00:00 5.3 6 Este 10 Este 0 -- -- 73
2021-01-18 03:00:00 5.9 3 Nordeste 9 Este 0 -- -- 70
2021-01-18 02:00:00 7.1 4 Este 9 Este 0 -- -- 67
2021-01-18 01:00:00 8.4 5 Este 9 Este 0 -- -- 63
2021-01-18 00:00:00 9 5 Este 8 Nordeste 0 -- -- 63
2021-01-17 23:00:00 10.1 5 Este 10 Nordeste 0 -- -- 56
2021-01-17 22:00:00 10.9 6 Nordeste 10 Nordeste 0 -- -- 51
2021-01-17 21:00:00 11.1 6 Nordeste 8 Nordeste 0 -- -- 51
2021-01-17 20:00:00 11.6 4 Norte 6 Nordeste 0 -- -- 48
2021-01-17 19:00:00 12.9 0 Calma 5 Nordeste 0 -- -- 51
2021-01-17 18:00:00 15.2 0 Calma 6 Nordeste 0 -- -- 47
2021-01-17 17:00:00 17 4 Este 12 Este 0 -- -- 43
2021-01-17 16:00:00 17 4 Este 13 Nordeste 0 -- -- 43
2021-01-17 15:00:00 15.8 7 Nordeste 16 Nordeste 0 -- -- 43
2021-01-17 14:00:00 14.4 7 Nordeste 18 Este 0 -- -- 49
2021-01-17 13:00:00 12.1 9 Nordeste 16 Nordeste 0 -- -- 57
2021-01-17 12:00:00 9.3 8 Nordeste 19 Nordeste 0 -- -- 61
2021-01-17 11:00:00 6.9 8 Nordeste 16 Nordeste 0 -- -- 68
2021-01-17 10:00:00 4.3 5 Nordeste 16 Nordeste 0 -- -- 78
2021-01-17 09:00:00 2.3 8 Nordeste 14 Este 0 -- -- 80
2021-01-17 08:00:00 2.2 4 Nordeste 13 Este 0 -- -- 80
2021-01-17 07:00:00 2.9 5 Nordeste 14 Este 0 -- -- 78
2021-01-17 06:00:00 3.1 9 Este 14 Este 0 -- -- 78
2021-01-17 05:00:00 3 6 Este 11 Este 0 -- -- 84
2021-01-17 04:00:00 3.5 7 Este 13 Este 0 -- -- 83
2021-01-17 03:00:00 4.5 8 Este 13 Este 0 -- -- 77
2021-01-17 02:00:00 5 6 Nordeste 12 Nordeste 0 -- -- 76
2021-01-17 01:00:00 6.4 5 Este 10 Este 0 -- -- 71
2021-01-17 00:00:00 6.6 5 Este 9 Este 0 -- -- 70
2021-01-16 23:00:00 7.8 4 Este 9 Nordeste 0 -- -- 66
2021-01-16 22:00:00 7.9 6 Este 11 Nordeste 0 -- -- 65
2021-01-16 21:00:00 9.2 3 Nordeste 11 Nordeste 0 -- -- 61
2021-01-16 20:00:00 9.3 3 Nordeste 7 Nordeste 0 -- -- 62
2021-01-16 19:00:00 11.3 5 Nordeste 9 Nordeste 0 -- -- 56
2021-01-16 18:00:00 15.1 0 Calma 10 Este 0 -- -- 52
2021-01-16 17:00:00 15.4 6 Este 17 Este 0 -- -- 45
2021-01-16 16:00:00 15.4 6 Nordeste 21 Nordeste 0 -- -- 46
2021-01-16 15:00:00 14.6 9 Nordeste 22 Este 0 -- -- 46
2021-01-16 14:00:00 13.2 11 Nordeste 25 Nordeste 0 -- -- 54
2021-01-16 13:00:00 11.5 8 Nordeste 22 Nordeste 0 -- -- 61
2021-01-16 12:00:00 9.5 11 Nordeste 23 Nordeste 0 -- -- 64
2021-01-16 11:00:00 7.3 10 Nordeste 22 Nordeste 0 -- -- 72
2021-01-16 10:00:00 4.4 7 Nordeste 13 Nordeste 0 -- -- 88
2021-01-16 09:00:00 2.2 10 Este 16 Este 0 -- -- 89
2021-01-16 08:00:00 2.2 4 Nordeste 9 Nordeste 0 -- -- 89
2021-01-16 07:00:00 2.4 7 Este 11 Este 0 -- -- 90
2021-01-16 06:00:00 2.3 2 Nordeste 9 Nordeste 0 -- -- 88
2021-01-16 05:00:00 3.4 5 Nordeste 11 Este 0 -- -- 86
2021-01-16 04:00:00 4.3 3 Nordeste 13 Este 0 -- -- 88
2021-01-16 03:00:00 4.2 6 Este 10 Este 0 -- -- 87
2021-01-16 02:00:00 4.8 7 Este 11 Este 0 -- -- 86
2021-01-16 01:00:00 5.8 8 Este 11 Este 0 -- -- 82
2021-01-16 00:00:00 7.5 3 Norte 7 Noroeste 0 -- -- 77
2021-01-15 23:00:00 8.7 6 Noroeste 8 Noroeste 0 -- -- 73
2021-01-15 22:00:00 9.3 4 Noroeste 6 Noroeste 0 -- -- 71
2021-01-15 21:00:00 9.5 3 Noroeste 7 Norte 0 -- -- 72
2021-01-15 20:00:00 10 5 Norte 8 Norte 0 -- -- 71
2021-01-15 19:00:00 12 4 Norte 5 Norte 0 -- -- 64
2021-01-15 18:00:00 14.4 0 Calma 5 Nordeste 0 -- -- 55
2021-01-15 17:00:00 14.4 3 Nordeste 8 Este 0 -- -- 57
2021-01-15 16:00:00 14 4 Nordeste 10 Sudeste 0 -- -- 57
2021-01-15 15:00:00 13.2 3 Nordeste 10 Nordeste 0 -- -- 61
2021-01-15 14:00:00 11.4 5 Nordeste 10 Nordeste 0 -- -- 63
2021-01-15 13:00:00 10.1 5 Nordeste 13 Este 0 -- -- 67
2021-01-15 12:00:00 8.1 5 Nordeste 13 Este 0 -- -- 76
2021-01-15 11:00:00 5.8 4 Nordeste 11 Nordeste 0 -- -- 85
2021-01-15 10:00:00 2.9 5 Este 9 Nordeste 0 -- -- 94
2021-01-15 09:00:00 0.8 3 Nordeste 10 Este 0 -- -- 93
2021-01-15 08:00:00 1.3 4 Nordeste 13 Este 0 -- -- 93
2021-01-15 07:00:00 1.4 9 Este 13 Este 0 -- -- 93
2021-01-15 06:00:00 1.7 6 Este 8 Este 0 -- -- 92
2021-01-15 05:00:00 1.8 3 Nordeste 12 Este 0 -- -- 91
2021-01-15 04:00:00 2.6 9 Este 13 Este 0 -- -- 91
2021-01-15 03:00:00 3.1 5 Este 11 Este 0 -- -- 85
2021-01-15 02:00:00 4.6 5 Este 10 Nordeste 0 -- -- 84
2021-01-15 01:00:00 5.4 2 Este 3 Este 0 -- -- 83
2021-01-15 00:00:00 5.9 0 Calma 4 Noroeste 0 -- -- 82
2021-01-14 23:00:00 6.7 3 Noroeste 4 Norte 0 -- -- 79
2021-01-14 22:00:00 7.4 2 Oeste 6 Oeste 0 -- -- 76
2021-01-14 21:00:00 7.4 3 Oeste 8 Oeste 0 -- -- 77
2021-01-14 20:00:00 8 6 Oeste 9 Oeste 0 -- -- 74
2021-01-14 19:00:00 9.4 5 Sudoeste 7 Oeste 0 -- -- 69
2021-01-14 18:00:00 12.2 4 Oeste 6 Sudoeste 0 -- -- 62
2021-01-14 17:00:00 12.4 4 Oeste 10 Sudoeste 0 -- -- 56
2021-01-14 16:00:00 12.4 6 Sudoeste 12 Sudoeste 0 -- -- 56
2021-01-14 15:00:00 12 6 Sudoeste 13 Sudoeste 0 -- -- 60
2021-01-14 14:00:00 10.9 3 Sudoeste 7 Norte 0 -- -- 63
2021-01-14 13:00:00 9.3 3 Nordeste 10 Nordeste 0 -- -- 68
2021-01-14 12:00:00 7.6 5 Nordeste 13 Este 0 -- -- 73
2021-01-14 11:00:00 5.3 6 Nordeste 13 Este 0 -- -- 84
2021-01-14 10:00:00 2.3 9 Este 14 Este 0 -- -- 91
2021-01-14 09:00:00 0.7 8 Este 12 Este 0 -- -- 89
2021-01-14 08:00:00 2 5 Este 8 Este 0 -- -- 89
2021-01-14 07:00:00 2.3 6 Este 9 Este 0 -- -- 89
2021-01-14 06:00:00 1.6 6 Este 9 Este 0 -- -- 89
2021-01-14 05:00:00 2.7 5 Este 9 Sudoeste 0 -- -- 84
2021-01-14 04:00:00 4.8 8 Sur 10 Sur 0 -- -- 81
2021-01-14 03:00:00 5 8 Sur 10 Sur 0 -- -- 80
2021-01-14 02:00:00 5 8 Sur 13 Sur 0 -- -- 81
2021-01-14 01:00:00 5 10 Sur 13 Sur 0 -- -- 80
2021-01-14 00:00:00 5.6 9 Sur 13 Sur 0 -- -- 76
2021-01-13 23:00:00 6 10 Sur 15 Sudoeste 0 -- -- 73
2021-01-13 22:00:00 6.4 11 Sudoeste 15 Sudoeste 0 -- -- 71
2021-01-13 21:00:00 7.9 9 Sudoeste 10 Sudoeste 0 -- -- 63
2021-01-13 20:00:00 8.7 7 Sudoeste 9 Sudoeste 0 -- -- 60
2021-01-13 19:00:00 10 7 Sudoeste 8 Sudoeste 0 -- -- 57
2021-01-13 18:00:00 12.7 5 Oeste 6 Oeste 0 -- -- 59
2021-01-13 17:00:00 13.5 2 Sudoeste 5 Oeste 0 -- -- 48
2021-01-13 16:00:00 13.1 2 Noroeste 7 Nordeste 0 -- -- 47
2021-01-13 15:00:00 11.9 4 Nordeste 14 Este 0 -- -- 49
2021-01-13 14:00:00 10.7 6 Nordeste 16 Nordeste 0 -- -- 52
2021-01-13 13:00:00 9 8 Nordeste 14 Nordeste 0 -- -- 60
2021-01-13 12:00:00 7.2 6 Nordeste 19 Este 0 -- -- 65
2021-01-13 11:00:00 5.1 6 Nordeste 17 Nordeste 0 -- -- 71
2021-01-13 10:00:00 2.2 10 Nordeste 17 Este 0 -- -- 82
2021-01-13 09:00:00 0.2 5 Nordeste 13 Este 0 -- -- 87
2021-01-13 08:00:00 0 5 Nordeste 12 Nordeste 0 -- -- 88
2021-01-13 07:00:00 0.4 5 Nordeste 12 Nordeste 0 -- -- 89
2021-01-13 06:00:00 0.6 5 Nordeste 11 Nordeste 0 -- -- 88
2021-01-13 05:00:00 0.5 6 Nordeste 12 Nordeste 0 -- -- 89
2021-01-13 04:00:00 1.1 4 Nordeste 11 Este 0 -- -- 86
2021-01-13 03:00:00 1.9 5 Este 10 Este 0 -- -- 86
2021-01-13 02:00:00 1.8 5 Nordeste 8 Este 0 -- -- 85
2021-01-13 01:00:00 2.6 3 Nordeste 8 Este 0 -- -- 83
2021-01-13 00:00:00 2.8 4 Nordeste 8 Nordeste 0 -- -- 79
2021-01-12 23:00:00 4 2 Nordeste 7 Este 0 -- -- 74
2021-01-12 22:00:00 4.6 3 Este 8 Norte 0 -- -- 75
2021-01-12 21:00:00 5.2 4 Nordeste 8 Este 0 -- -- 75
2021-01-12 20:00:00 6.3 4 Nordeste 7 Nordeste 0 -- -- 71
2021-01-12 19:00:00 8.1 2 Nordeste 4 Norte 0 -- -- 67
2021-01-12 18:00:00 10.4 2 Este 7 Este 0 -- -- 60
2021-01-12 17:00:00 10.8 3 Nordeste 10 Nordeste 0 -- -- 59
2021-01-12 16:00:00 10.9 4 Nordeste 13 Nordeste 0 -- -- 61
2021-01-12 15:00:00 10.4 5 Nordeste 14 Nordeste 0 -- -- 60
2021-01-12 14:00:00 9.3 7 Nordeste 17 Nordeste 0 -- -- 68
2021-01-12 13:00:00 7.9 8 Nordeste 19 Nordeste 0 -- -- 71
2021-01-12 12:00:00 5.9 8 Nordeste 22 Este 0 -- -- 75
2021-01-12 11:00:00 4.2 8 Nordeste 18 Este 0 -- -- 77
2021-01-12 10:00:00 2 6 Nordeste 20 Nordeste 0 -- -- 83
2021-01-12 09:00:00 0.1 4 Nordeste 12 Nordeste 0 -- -- 87
2021-01-12 08:00:00 0.6 4 Nordeste 13 Nordeste 0 -- -- 85
2021-01-12 07:00:00 0.5 4 Nordeste 13 Nordeste 0 -- -- 88
2021-01-12 06:00:00 0.6 4 Nordeste 14 Nordeste 0 -- -- 88
2021-01-12 05:00:00 1.2 6 Nordeste 17 Nordeste 0 -- -- 87
2021-01-12 04:00:00 1.4 7 Nordeste 14 Nordeste 0 -- -- 88
2021-01-12 03:00:00 1.6 5 Nordeste 12 Este 0 -- -- 86
2021-01-12 02:00:00 2.3 3 Nordeste 10 Nordeste 0 -- -- 84
2021-01-12 01:00:00 2.7 5 Nordeste 9 Nordeste 0 -- -- 82
2021-01-12 00:00:00 3.5 4 Nordeste 8 Nordeste 0 -- -- 81
2021-01-11 23:00:00 4.2 3 Nordeste 6 Nordeste 0 -- -- 79
2021-01-11 22:00:00 5.2 4 Nordeste 9 Nordeste 0 -- -- 76
2021-01-11 21:00:00 6.1 3 Nordeste 10 Nordeste 0 -- -- 76
2021-01-11 20:00:00 7.5 5 Nordeste 10 Nordeste 0 -- -- 71
2021-01-11 19:00:00 8.7 0 Calma 5 Este 0 -- -- 70
2021-01-11 18:00:00 10.8 3 Este 9 Nordeste 0 -- -- 61
2021-01-11 17:00:00 11.1 3 Nordeste 11 Nordeste 0 -- -- 60
2021-01-11 16:00:00 11 3 Nordeste 15 Este 0 -- -- 62
2021-01-11 15:00:00 10.2 5 Nordeste 16 Nordeste 0 -- -- 66
2021-01-11 14:00:00 9.4 7 Nordeste 15 Nordeste 0 -- -- 68
2021-01-11 13:00:00 8.4 5 Nordeste 14 Nordeste 0 -- -- 71
2021-01-11 12:00:00 7.4 6 Nordeste 15 Nordeste 0 -- -- 75
2021-01-11 11:00:00 6 6 Nordeste 14 Este 0 -- -- 79
2021-01-11 10:00:00 3.5 3 Nordeste 9 Este 0 -- -- 93
2021-01-11 09:00:00 1.2 3 Norte 9 Nordeste 0 -- -- 93
2021-01-11 08:00:00 1.4 4 Nordeste 11 Nordeste 0 -- -- 92
2021-01-11 07:00:00 2 5 Nordeste 12 Este 0 -- -- 91
2021-01-11 06:00:00 2.4 4 Nordeste 14 Nordeste 0 -- -- 91
2021-01-11 05:00:00 2.8 7 Nordeste 17 Nordeste 0 -- -- 91
2021-01-11 04:00:00 3.3 8 Nordeste 16 Nordeste 0 -- -- 92
2021-01-11 03:00:00 3.6 3 Nordeste 10 Nordeste 0 -- -- 93
2021-01-11 02:00:00 3.8 2 Nordeste 9 Nordeste 0 -- -- 91
2021-01-11 01:00:00 4.9 5 Noroeste 7 Sudoeste 0 -- -- 91
2021-01-11 00:00:00 5.5 5 Sudoeste 8 Sur 0 -- -- 89
2021-01-10 23:00:00 6.3 3 Sudeste 8 Este 0 -- -- 89
2021-01-10 22:00:00 6.7 3 Este 5 Este 0 -- -- 89
2021-01-10 21:00:00 6.7 2 Nordeste 7 Nordeste 0 -- -- 88
2021-01-10 20:00:00 6.9 3 Nordeste 8 Norte 0 -- -- 85
2021-01-10 19:00:00 7.2 2 Nordeste 5 Norte 0 -- -- 81
2021-01-10 18:00:00 7.9 0 Calma 8 Nordeste 0 -- -- 75
2021-01-10 17:00:00 8.6 6 Este 17 Este 0 -- -- 71
2021-01-10 16:00:00 9 11 Este 21 Este 0 -- -- 68
2021-01-10 15:00:00 9.3 6 Nordeste 18 Nordeste 0 -- -- 69
2021-01-10 14:00:00 8.1 8 Nordeste 18 Nordeste 0 -- -- 80
2021-01-10 13:00:00 6.4 6 Nordeste 13 Nordeste 0 -- -- 91
2021-01-10 12:00:00 5.2 3 Nordeste 9 Nordeste 0 -- -- 93
2021-01-10 11:00:00 4.7 3 Nordeste 8 Norte 0 -- -- 94
2021-01-10 10:00:00 3.7 0 Calma 3 Este 0.2 -- -- 95
2021-01-10 09:00:00 3.2 0 Calma 4 Nordeste 0.2 -- -- 94
2021-01-10 08:00:00 3.1 2 Oeste 5 Noroeste 0.2 -- -- 94
2021-01-10 07:00:00 3.2 0 Calma 3 Norte 0.2 -- -- 94
2021-01-10 06:00:00 3.1 0 Calma 5 Sudeste 0 -- -- 94
2021-01-10 05:00:00 3.2 3 Sur 9 Sur 0 -- -- 94
2021-01-10 04:00:00 3.4 7 Sur 17 Sudoeste 0 -- -- 93
2021-01-10 03:00:00 4.1 11 Sur 22 Sur 0 -- -- 92
2021-01-10 02:00:00 4.2 8 Sudeste 15 Sudeste 0 -- -- 92
2021-01-10 01:00:00 4.5 5 Sudeste 13 Sudeste 0 -- -- 88
2021-01-10 00:00:00 4.8 7 Este 11 Este 0 -- -- 89
2021-01-09 23:00:00 4.4 4 Este 7 Este 0 -- -- 86
2021-01-09 22:00:00 4.9 0 Calma 3 Sudeste 0 -- -- 82
2021-01-09 21:00:00 5.5 0 Calma 10 Sur 0 -- -- 80
2021-01-09 20:00:00 4.8 4 Este 9 Sudoeste 0 -- -- 83
2021-01-09 19:00:00 5.9 7 Sudoeste 12 Sudoeste 0 -- -- 77
2021-01-09 18:00:00 6.9 10 Sudoeste 27 Sudoeste 0 -- -- 75
2021-01-09 17:00:00 8.2 20 Sudoeste 33 Sudoeste 0 -- -- 65
2021-01-09 16:00:00 8.7 24 Sudoeste 34 Sudoeste 0 -- -- 69
2021-01-09 15:00:00 8.5 24 Sudoeste 37 Sudoeste 0 -- -- 70
2021-01-09 14:00:00 8.1 20 Sudoeste 31 Oeste 0 -- -- 73
2021-01-09 13:00:00 7.2 23 Sudoeste 30 Sudoeste 0 -- -- 80
2021-01-09 12:00:00 5.9 21 Sudoeste 28 Sudoeste 0 -- -- 90
2021-01-09 11:00:00 3.6 19 Sudoeste 30 Sudoeste 0 -- -- 97
2021-01-09 10:00:00 3.3 21 Sudoeste 28 Sudoeste 0 -- -- 98
2021-01-09 09:00:00 3.9 18 Sudoeste 32 Sudoeste 0 -- -- 98
2021-01-09 08:00:00 4.1 23 Sudoeste 31 Sudoeste 0.4 -- -- 98
2021-01-09 07:00:00 4.5 18 Oeste 29 Sudoeste 0 -- -- 98
2021-01-09 06:00:00 4.6 26 Sudoeste 34 Sudoeste 0.2 -- -- 98
2021-01-09 05:00:00 5 11 Oeste 23 Oeste 0.2 -- -- 98
2021-01-09 04:00:00 5.5 10 Oeste 15 Oeste 0.4 -- -- 98
2021-01-09 03:00:00 5.3 10 Oeste 21 Oeste 0 -- -- 98
2021-01-09 02:00:00 6 14 Oeste 28 Sudoeste 0 -- -- 98
2021-01-09 01:00:00 5.9 19 Oeste 27 Oeste 0 -- -- 98
2021-01-09 00:00:00 6.3 13 Oeste 19 Oeste 0.6 -- -- 98
2021-01-08 23:00:00 8 10 Noroeste 13 Noroeste 0 -- -- 98
2021-01-08 22:00:00 8.5 3 Nordeste 15 Nordeste 4.8 -- -- 98
2021-01-08 21:00:00 8.8 4 Noroeste 17 Nordeste 5.4 -- -- 98
2021-01-08 20:00:00 8.1 9 Nordeste 17 Este 5 -- -- 97
2021-01-08 19:00:00 7.8 9 Nordeste 24 Nordeste 2.8 -- -- 97
2021-01-08 18:00:00 7.8 11 Nordeste 30 Este 3.2 -- -- 97
2021-01-08 17:00:00 7.8 14 Nordeste 31 Nordeste 0.8 -- -- 97
2021-01-08 16:00:00 7.9 17 Nordeste 38 Este 0 -- -- 97
2021-01-08 15:00:00 7.5 19 Nordeste 38 Este 0.4 -- -- 97
2021-01-08 14:00:00 7.4 20 Este 37 Nordeste 0.6 -- -- 97
2021-01-08 13:00:00 7.3 17 Nordeste 39 Nordeste 1 -- -- 97
2021-01-08 12:00:00 6.7 16 Nordeste 35 Nordeste 2 -- -- 97
2021-01-08 11:00:00 6.4 17 Nordeste 38 Nordeste 6.4 -- -- 97
2021-01-08 10:00:00 6.2 12 Nordeste 31 Nordeste 2.8 -- -- 97
2021-01-08 09:00:00 5.9 13 Nordeste 33 Nordeste 3 -- -- 97
2021-01-08 08:00:00 5.9 17 Nordeste 34 Nordeste 0.6 -- -- 97
2021-01-08 07:00:00 5.7 15 Nordeste 33 Nordeste 0.8 -- -- 97
2021-01-08 06:00:00 5.7 14 Nordeste 30 Nordeste 0 -- -- 97
2021-01-08 05:00:00 5.6 14 Nordeste 27 Nordeste 0.6 -- -- 97
2021-01-08 04:00:00 5.6 12 Nordeste 25 Nordeste 1.2 -- -- 97
2021-01-08 03:00:00 5.5 12 Nordeste 28 Nordeste 1.4 -- -- 96
2021-01-08 02:00:00 5.6 13 Nordeste 26 Este 1.4 -- -- 96
2021-01-08 01:00:00 5.6 13 Nordeste 29 Este 1 -- -- 96
2021-01-08 00:00:00 5.6 14 Nordeste 32 Nordeste 1.2 -- -- 96
2021-01-07 23:00:00 5.8 13 Nordeste 25 Este 1.8 -- -- 96
2021-01-07 22:00:00 6 12 Nordeste 27 Nordeste 1.6 -- -- 96
2021-01-07 21:00:00 6.1 10 Nordeste 27 Nordeste 0.8 -- -- 95
2021-01-07 20:00:00 6.3 13 Nordeste 27 Nordeste 0.8 -- -- 95
2021-01-07 19:00:00 6.6 12 Nordeste 23 Nordeste 0.8 -- -- 95
2021-01-07 18:00:00 6.9 10 Nordeste 25 Nordeste 0.2 -- -- 94
2021-01-07 17:00:00 7.1 12 Nordeste 23 Nordeste 0 -- -- 95
2021-01-07 16:00:00 7.3 10 Nordeste 24 Este 0.4 -- -- 96
2021-01-07 15:00:00 7 16 Este 25 Nordeste 0.6 -- -- 95
2021-01-07 14:00:00 7 9 Nordeste 22 Este 0.4 -- -- 96
2021-01-07 13:00:00 7 10 Nordeste 26 Nordeste 1.6 -- -- 96
2021-01-07 12:00:00 6.8 11 Nordeste 27 Nordeste 0.8 -- -- 96
2021-01-07 11:00:00 6.7 7 Nordeste 21 Nordeste 0.4 -- -- 96
2021-01-07 10:00:00 6.4 8 Nordeste 27 Nordeste 0.2 -- -- 96
2021-01-07 09:00:00 6.2 11 Nordeste 26 Nordeste 1 -- -- 96
2021-01-07 08:00:00 6.2 9 Nordeste 21 Nordeste 1 -- -- 96
2021-01-07 07:00:00 6.2 10 Nordeste 26 Nordeste 1 -- -- 96
2021-01-07 06:00:00 6.2 12 Nordeste 26 Nordeste 0.6 -- -- 96
2021-01-07 05:00:00 6.2 10 Nordeste 22 Nordeste 0.4 -- -- 95
2021-01-07 04:00:00 6.2 8 Nordeste 19 Nordeste 0.4 -- -- 95
2021-01-07 03:00:00 6.2 5 Nordeste 15 Nordeste 0.6 -- -- 95
2021-01-07 02:00:00 6.1 8 Nordeste 18 Nordeste 1.2 -- -- 94
2021-01-07 01:00:00 6.1 6 Nordeste 18 Este 1.6 -- -- 94
2021-01-07 00:00:00 6.3 6 Nordeste 15 Nordeste 0.6 -- -- 93
2021-01-06 23:00:00 6.7 6 Nordeste 17 Nordeste 1.2 -- -- 93
2021-01-06 22:00:00 7 2 Nordeste 9 Nordeste 1.2 -- -- 91
2021-01-06 21:00:00 7.2 3 Nordeste 11 Nordeste 1.4 -- -- 89
2021-01-06 20:00:00 7.8 4 Nordeste 22 Este 0.6 -- -- 83
2021-01-06 19:00:00 8.9 16 Este 24 Este 0 -- -- 71
2021-01-06 18:00:00 9.5 12 Este 23 Este 0 -- -- 68
2021-01-06 17:00:00 10.3 7 Nordeste 22 Nordeste 0 -- -- 68
2021-01-06 16:00:00 11.1 9 Nordeste 22 Nordeste 0 -- -- 65
2021-01-06 15:00:00 11 9 Nordeste 24 Este 0 -- -- 66
2021-01-06 14:00:00 10 9 Nordeste 23 Nordeste 0 -- -- 67
2021-01-06 13:00:00 9.4 8 Nordeste 20 Este 0 -- -- 69
2021-01-06 12:00:00 7.8 10 Nordeste 22 Este 0 -- -- 70
2021-01-06 11:00:00 5.6 9 Nordeste 17 Nordeste 0 -- -- 75
2021-01-06 10:00:00 4.6 8 Nordeste 19 Este 0 -- -- 74
2021-01-06 09:00:00 3.5 5 Nordeste 13 Nordeste 0 -- -- 78
2021-01-06 08:00:00 3.2 6 Nordeste 13 Este 0 -- -- 79
2021-01-06 07:00:00 3.3 5 Nordeste 15 Nordeste 0 -- -- 78
2021-01-06 06:00:00 3.4 6 Nordeste 13 Nordeste 0 -- -- 79
2021-01-06 05:00:00 3.2 6 Nordeste 15 Este 0 -- -- 79
2021-01-06 04:00:00 4 7 Nordeste 17 Nordeste 0 -- -- 76
2021-01-06 03:00:00 4.5 8 Nordeste 21 Nordeste 0 -- -- 74
2021-01-06 02:00:00 4.7 8 Nordeste 21 Nordeste 0 -- -- 75
2021-01-06 01:00:00 4.6 7 Nordeste 15 Nordeste 0 -- -- 77
2021-01-06 00:00:00 4.7 8 Nordeste 16 Nordeste 0 -- -- 77
2021-01-05 23:00:00 4.5 6 Nordeste 17 Nordeste 0 -- -- 80
2021-01-05 22:00:00 5 7 Nordeste 15 Nordeste 0 -- -- 80
2021-01-05 21:00:00 5.1 6 Nordeste 12 Nordeste 0 -- -- 83
2021-01-05 20:00:00 6 4 Nordeste 8 Este 0 -- -- 77
2021-01-05 19:00:00 7.7 4 Nordeste 13 Nordeste 0 -- -- 73
2021-01-05 18:00:00 9 6 Nordeste 14 Nordeste 0 -- -- 71
2021-01-05 17:00:00 9.9 6 Nordeste 16 Nordeste 0 -- -- 67
2021-01-05 16:00:00 10.4 5 Nordeste 15 Nordeste 0 -- -- 67
2021-01-05 15:00:00 10.7 6 Nordeste 18 Nordeste 0 -- -- 68
2021-01-05 14:00:00 11.1 6 Nordeste 17 Norte 0 -- -- 69
2021-01-05 13:00:00 10.2 7 Nordeste 17 Nordeste 0 -- -- 72
2021-01-05 12:00:00 8.9 9 Nordeste 21 Nordeste 0 -- -- 76
2021-01-05 11:00:00 7.3 6 Nordeste 20 Este 0 -- -- 84
2021-01-05 10:00:00 4.6 9 Este 13 Nordeste 0 -- -- 95
2021-01-05 09:00:00 3.6 4 Nordeste 14 Este 0 -- -- 94
2021-01-05 08:00:00 3.8 4 Nordeste 9 Nordeste 0 -- -- 94
2021-01-05 07:00:00 3.5 2 Nordeste 9 Nordeste 0 -- -- 94
2021-01-05 06:00:00 3.5 2 Nordeste 8 Nordeste 0 -- -- 92
2021-01-05 05:00:00 4.7 5 Este 9 Este 0 -- -- 91
2021-01-05 04:00:00 5.5 5 Este 7 Nordeste 0 -- -- 91
2021-01-05 03:00:00 5.6 3 Este 8 Norte 0 -- -- 88
2021-01-05 02:00:00 6.4 4 Sudoeste 10 Sur 0 -- -- 85
2021-01-05 01:00:00 5.8 10 Sur 12 Sur 0 -- -- 86
2021-01-05 00:00:00 6.5 7 Sur 9 Sur 0 -- -- 84
2021-01-04 23:00:00 6.9 9 Sur 14 Sudoeste 0 -- -- 84
2021-01-04 22:00:00 7.4 13 Sudoeste 15 Sudoeste 0 -- -- 83
2021-01-04 21:00:00 8.2 13 Sudoeste 21 Sudoeste 0 -- -- 76
2021-01-04 20:00:00 8.6 12 Sudoeste 18 Sudoeste 0 -- -- 72
2021-01-04 19:00:00 8.6 12 Sudoeste 18 Oeste 0 -- -- 72
2021-01-04 18:00:00 9.8 13 Sudoeste 19 Oeste 0 -- -- 67
2021-01-04 17:00:00 10.7 12 Oeste 23 Oeste 0 -- -- 64
2021-01-04 16:00:00 10.8 14 Oeste 23 Oeste 0 -- -- 62
2021-01-04 15:00:00 10.3 11 Oeste 18 Oeste 0 -- -- 67
2021-01-04 14:00:00 9.2 10 Oeste 19 Oeste 0 -- -- 70
2021-01-04 13:00:00 8.4 7 Oeste 14 Oeste 0 -- -- 74
2021-01-04 12:00:00 6.3 2 Oeste 5 Noroeste 0 -- -- 80
2021-01-04 11:00:00 4.5 3 Sudoeste 8 Sur 0 -- -- 86
2021-01-04 10:00:00 2.6 2 Sur 5 Sur 0 -- -- 91
2021-01-04 09:00:00 0.9 2 Sur 4 Nordeste 0 -- -- 92
2021-01-04 08:00:00 0.8 3 Nordeste 8 Sur 0 -- -- 90
2021-01-04 07:00:00 2 2 Oeste 6 Oeste 0 -- -- 89
2021-01-04 06:00:00 2 4 Sudoeste 9 Sudoeste 0 -- -- 87
2021-01-04 05:00:00 2 5 Sudoeste 12 Sur 0 -- -- 88
2021-01-04 04:00:00 2.1 9 Sudoeste 11 Sur 0 -- -- 87
2021-01-04 03:00:00 2.5 8 Sudoeste 13 Sudoeste 0 -- -- 86
2021-01-04 02:00:00 2.5 10 Sur 13 Sur 0 -- -- 88
2021-01-04 01:00:00 3.1 7 Sudoeste 9 Sur 0 -- -- 85
2021-01-04 00:00:00 3.3 5 Sudoeste 13 Sudoeste 0 -- -- 85
2021-01-03 23:00:00 3.6 6 Sudoeste 15 Sur 0 -- -- 84
2021-01-03 22:00:00 4.3 14 Sudoeste 23 Sudoeste 0 -- -- 82
2021-01-03 21:00:00 4.8 15 Sudoeste 22 Sudoeste 0 -- -- 78
2021-01-03 20:00:00 5.6 16 Sudoeste 22 Sudoeste 0 -- -- 66
2021-01-03 19:00:00 6.2 14 Sudoeste 18 Sudoeste 0 -- -- 64
2021-01-03 18:00:00 9.1 12 Sudoeste 18 Oeste 0 -- -- 58
2021-01-03 17:00:00 10.4 13 Sudoeste 21 Sudoeste 0 -- -- 51
2021-01-03 16:00:00 10.6 9 Sudoeste 18 Sudoeste 0 -- -- 52
2021-01-03 15:00:00 9.9 11 Sudoeste 20 Oeste 0 -- -- 56
2021-01-03 14:00:00 9 8 Sudoeste 15 Sudoeste 0 -- -- 59
2021-01-03 13:00:00 7.8 4 Sudoeste 9 Sur 0 -- -- 65
2021-01-03 12:00:00 7 4 Sudeste 9 Sudeste 0 -- -- 72
2021-01-03 11:00:00 4.8 4 Este 9 Este 0 -- -- 79
2021-01-03 10:00:00 1.4 4 Nordeste 8 Nordeste 0 -- -- 86
2021-01-03 09:00:00 0.4 2 Noroeste 5 Sur 0 -- -- 86
2021-01-03 08:00:00 0.1 0 Calma 11 Sur 0 -- -- 85
2021-01-03 07:00:00 0.9 0 Calma 7 Sudoeste 0 -- -- 83
2021-01-03 06:00:00 1.2 5 Sudoeste 10 Sudoeste 0 -- -- 81
2021-01-03 05:00:00 2 2 Oeste 5 Sudeste 0 -- -- 78
2021-01-03 04:00:00 2.1 2 Oeste 4 Oeste 0 -- -- 79
2021-01-03 03:00:00 2.6 3 Oeste 13 Noroeste 0 -- -- 77
2021-01-03 02:00:00 2.8 10 Noroeste 13 Noroeste 0 -- -- 76
2021-01-03 01:00:00 3.9 4 Norte 7 Norte 0 -- -- 71
2021-01-03 00:00:00 4.3 4 Nordeste 12 Noroeste 0 -- -- 70
2021-01-02 23:00:00 4.3 9 Noroeste 13 Noroeste 0 -- -- 71
2021-01-02 22:00:00 4.8 9 Norte 13 Noroeste 0 -- -- 69
2021-01-02 21:00:00 5.5 6 Noroeste 18 Norte 0 -- -- 66
2021-01-02 20:00:00 6.1 13 Norte 21 Norte 0 -- -- 63
2021-01-02 19:00:00 6.7 12 Noroeste 15 Noroeste 0 -- -- 63
2021-01-02 18:00:00 9 13 Oeste 21 Oeste 0 -- -- 59
2021-01-02 17:00:00 10.4 16 Oeste 26 Oeste 0 -- -- 57
2021-01-02 16:00:00 10.4 15 Oeste 24 Oeste 0 -- -- 55
2021-01-02 15:00:00 9.8 8 Oeste 18 Oeste 0 -- -- 59
2021-01-02 14:00:00 8.6 5 Noroeste 19 Noroeste 0 -- -- 63